Time,TemperatureF,DewpointF,PressureIn,WindDirection,WindDirectionDegrees,WindSpeedMPH,WindSpeedGustMPH,Humidity,HourlyPrecipIn,Conditions,Clouds,dailyrainin,SoftwareType,DateUTC
2013-01-15 00:02:00,21.0,15.0,30.12,SE,124,3.0,10.0,76,0.00,,,0.00,,2013-01-15 06:02:00,
2013-01-15 00:12:00,21.0,15.0,30.12,SE,124,3.0,10.0,76,0.00,,,0.00,,2013-01-15 06:12:00,
2013-01-15 00:22:00,21.0,15.0,30.12,SE,124,3.0,10.0,76,0.00,,,0.00,,2013-01-15 06:22:00,
2013-01-15 00:33:00,21.0,14.0,30.11,SE,138,3.0,9.0,75,0.00,,,0.00,,2013-01-15 06:33:00,
2013-01-15 00:43:00,21.0,14.0,30.11,SE,138,3.0,9.0,75,0.00,,,0.00,,2013-01-15 06:43:00,
2013-01-15 00:53:00,21.0,14.0,30.11,SE,138,3.0,9.0,75,0.00,,,0.00,,2013-01-15 06:53:00,
2013-01-15 01:02:00,20.0,14.0,30.10,SE,138,0.0,3.0,76,0.00,,,0.00,,2013-01-15 07:02:00,
2013-01-15 01:12:00,20.0,14.0,30.10,SE,138,0.0,3.0,76,0.00,,,0.00,,2013-01-15 07:12:00,
2013-01-15 01:22:00,20.0,14.0,30.10,SE,138,0.0,3.0,76,0.00,,,0.00,,2013-01-15 07:22:00,
2013-01-15 01:33:00,19.0,14.0,30.11,SE,138,0.0,0.0,79,0.00,,,0.00,,2013-01-15 07:33:00,
2013-01-15 01:43:00,19.0,14.0,30.11,SE,138,0.0,0.0,79,0.00,,,0.00,,2013-01-15 07:43:00,
2013-01-15 01:53:00,19.0,14.0,30.11,SE,138,0.0,0.0,79,0.00,,,0.00,,2013-01-15 07:53:00,
2013-01-15 02:02:00,20.0,15.0,30.09,SE,138,2.0,3.0,80,0.00,,,0.00,,2013-01-15 08:02:00,
2013-01-15 02:12:00,20.0,15.0,30.09,SE,138,2.0,3.0,80,0.00,,,0.00,,2013-01-15 08:12:00,
2013-01-15 02:22:00,20.0,15.0,30.09,SE,138,2.0,3.0,80,0.00,,,0.00,,2013-01-15 08:22:00,
2013-01-15 02:33:00,20.0,14.0,30.09,SE,138,1.0,3.0,78,0.00,,,0.00,,2013-01-15 08:33:00,
2013-01-15 02:43:00,20.0,14.0,30.09,SE,138,1.0,3.0,78,0.00,,,0.00,,2013-01-15 08:43:00,
2013-01-15 02:53:00,20.0,14.0,30.09,SE,138,1.0,3.0,78,0.00,,,0.00,,2013-01-15 08:53:00,
2013-01-15 03:02:00,21.0,15.0,30.08,SE,138,0.0,2.0,78,0.00,,,0.00,,2013-01-15 09:02:00,
2013-01-15 03:12:00,21.0,15.0,30.08,SE,138,0.0,2.0,78,0.00,,,0.00,,2013-01-15 09:12:00,
2013-01-15 03:22:00,21.0,15.0,30.08,SE,138,0.0,2.0,78,0.00,,,0.00,,2013-01-15 09:22:00,
2013-01-15 03:33:00,21.0,15.0,30.08,SE,138,0.0,2.0,78,0.00,,,0.00,,2013-01-15 09:33:00,
2013-01-15 03:42:00,21.0,15.0,30.08,SE,138,0.0,2.0,78,0.00,,,0.00,,2013-01-15 09:42:00,
2013-01-15 03:52:00,21.0,15.0,30.08,SE,138,0.0,2.0,78,0.00,,,0.00,,2013-01-15 09:52:00,
2013-01-15 04:02:00,20.0,14.0,30.10,SE,138,0.0,2.0,78,0.00,,,0.00,,2013-01-15 10:02:00,
2013-01-15 04:12:00,20.0,14.0,30.10,SE,138,0.0,2.0,78,0.00,,,0.00,,2013-01-15 10:12:00,
2013-01-15 04:22:00,20.0,14.0,30.10,SE,138,0.0,2.0,78,0.00,,,0.00,,2013-01-15 10:22:00,
2013-01-15 04:32:00,16.0,11.0,30.14,SE,138,0.0,2.0,81,0.00,,,0.00,,2013-01-15 10:32:00,
2013-01-15 04:42:00,16.0,11.0,30.14,SE,138,0.0,2.0,81,0.00,,,0.00,,2013-01-15 10:42:00,
2013-01-15 04:52:00,16.0,11.0,30.14,SE,138,0.0,2.0,81,0.00,,,0.00,,2013-01-15 10:52:00,
2013-01-15 05:02:00,17.0,13.0,30.16,SE,138,0.0,2.0,85,0.00,,,0.00,,2013-01-15 11:02:00,
2013-01-15 05:12:00,17.0,13.0,30.16,SE,138,0.0,2.0,85,0.00,,,0.00,,2013-01-15 11:12:00,
2013-01-15 05:22:00,17.0,13.0,30.16,SE,138,0.0,2.0,85,0.00,,,0.00,,2013-01-15 11:22:00,
2013-01-15 05:33:00,15.0,11.0,30.17,SE,138,1.0,2.0,85,0.00,,,0.00,,2013-01-15 11:33:00,
2013-01-15 05:43:00,15.0,11.0,30.17,SE,138,1.0,2.0,85,0.00,,,0.00,,2013-01-15 11:43:00,
2013-01-15 05:53:00,15.0,11.0,30.17,SE,138,1.0,2.0,85,0.00,,,0.00,,2013-01-15 11:53:00,
2013-01-15 06:03:00,13.0,9.0,30.21,SE,138,0.0,1.0,84,0.00,,,0.00,,2013-01-15 12:03:00,
2013-01-15 06:12:00,13.0,9.0,30.21,SE,138,0.0,1.0,84,0.00,,,0.00,,2013-01-15 12:12:00,
2013-01-15 06:22:00,13.0,9.0,30.21,SE,138,0.0,1.0,84,0.00,,,0.00,,2013-01-15 12:22:00,
2013-01-15 06:33:00,13.0,9.0,30.22,SE,138,1.0,3.0,85,0.00,,,0.00,,2013-01-15 12:33:00,
2013-01-15 06:43:00,13.0,9.0,30.22,SE,138,1.0,3.0,85,0.00,,,0.00,,2013-01-15 12:43:00,
2013-01-15 06:53:00,13.0,9.0,30.22,SE,138,1.0,3.0,85,0.00,,,0.00,,2013-01-15 12:53:00,
2013-01-15 07:03:00,15.0,12.0,30.23,SE,138,0.0,3.0,87,0.00,,,0.00,,2013-01-15 13:03:00,
2013-01-15 07:12:00,15.0,12.0,30.23,SE,138,0.0,3.0,87,0.00,,,0.00,,2013-01-15 13:12:00,
2013-01-15 07:23:00,15.0,12.0,30.23,SE,138,0.0,3.0,87,0.00,,,0.00,,2013-01-15 13:23:00,
2013-01-15 07:33:00,15.0,11.0,30.24,SE,138,1.0,2.0,85,0.00,,,0.00,,2013-01-15 13:33:00,
2013-01-15 07:43:00,15.0,11.0,30.24,SE,138,1.0,2.0,85,0.00,,,0.00,,2013-01-15 13:43:00,
2013-01-15 07:53:00,15.0,11.0,30.24,SE,138,1.0,2.0,85,0.00,,,0.00,,2013-01-15 13:53:00,
2013-01-15 08:02:00,12.0,8.0,30.28,SE,138,0.0,2.0,83,0.00,,,0.00,,2013-01-15 14:02:00,
2013-01-15 08:12:00,12.0,8.0,30.28,SE,138,0.0,2.0,83,0.00,,,0.00,,2013-01-15 14:12:00,
2013-01-15 08:23:00,12.0,8.0,30.28,SE,138,0.0,2.0,83,0.00,,,0.00,,2013-01-15 14:23:00,
2013-01-15 08:33:00,11.0,7.0,30.30,SE,138,1.0,2.0,83,0.00,,,0.00,,2013-01-15 14:33:00,
2013-01-15 08:43:00,11.0,7.0,30.30,SE,138,1.0,2.0,83,0.00,,,0.00,,2013-01-15 14:43:00,
2013-01-15 08:53:00,11.0,7.0,30.30,SE,138,1.0,2.0,83,0.00,,,0.00,,2013-01-15 14:53:00,
2013-01-15 09:03:00,14.0,11.0,30.29,SE,138,0.0,2.0,86,0.00,,,0.00,,2013-01-15 15:03:00,
2013-01-15 09:12:00,14.0,11.0,30.29,SE,138,0.0,2.0,86,0.00,,,0.00,,2013-01-15 15:12:00,
2013-01-15 09:23:00,14.0,11.0,30.29,SE,138,0.0,2.0,86,0.00,,,0.00,,2013-01-15 15:23:00,
2013-01-15 09:33:00,20.0,16.0,30.27,SE,138,1.0,3.0,85,0.00,,,0.00,,2013-01-15 15:33:00,
2013-01-15 09:43:00,20.0,16.0,30.27,SE,138,1.0,3.0,85,0.00,,,0.00,,2013-01-15 15:43:00,
2013-01-15 09:53:00,20.0,16.0,30.27,SE,138,1.0,3.0,85,0.00,,,0.00,,2013-01-15 15:53:00,
2013-01-15 10:03:00,23.0,19.0,30.27,SW,233,1.0,6.0,83,0.00,,,0.00,,2013-01-15 16:03:00,
2013-01-15 10:12:00,23.0,19.0,30.27,SW,233,1.0,6.0,83,0.00,,,0.00,,2013-01-15 16:12:00,
2013-01-15 10:22:00,23.0,19.0,30.27,SW,233,1.0,6.0,83,0.00,,,0.00,,2013-01-15 16:22:00,
2013-01-15 10:33:00,25.0,19.0,30.26,WSW,254,2.0,6.0,77,0.00,,,0.00,,2013-01-15 16:33:00,
2013-01-15 10:43:00,25.0,19.0,30.26,WSW,254,2.0,6.0,77,0.00,,,0.00,,2013-01-15 16:43:00,
2013-01-15 10:53:00,25.0,19.0,30.26,WSW,254,2.0,6.0,77,0.00,,,0.00,,2013-01-15 16:53:00,
2013-01-15 11:03:00,28.0,20.0,30.25,West,263,2.0,7.0,70,0.00,,,0.00,,2013-01-15 17:03:00,
2013-01-15 11:12:00,28.0,20.0,30.25,West,263,2.0,7.0,70,0.00,,,0.00,,2013-01-15 17:12:00,
2013-01-15 11:22:00,28.0,20.0,30.25,West,263,2.0,7.0,70,0.00,,,0.00,,2013-01-15 17:22:00,
2013-01-15 11:33:00,31.0,16.0,30.22,NW,316,3.0,8.0,54,0.00,,,0.00,,2013-01-15 17:33:00,
2013-01-15 11:43:00,31.0,16.0,30.22,NW,316,3.0,8.0,54,0.00,,,0.00,,2013-01-15 17:43:00,
2013-01-15 11:53:00,31.0,16.0,30.22,NW,316,3.0,8.0,54,0.00,,,0.00,,2013-01-15 17:53:00,
2013-01-15 12:03:00,30.0,14.0,30.23,NW,313,3.0,12.0,51,0.00,,,0.00,,2013-01-15 18:03:00,
2013-01-15 12:13:00,30.0,14.0,30.23,NW,313,3.0,12.0,51,0.00,,,0.00,,2013-01-15 18:13:00,
2013-01-15 12:23:00,30.0,14.0,30.23,NW,313,3.0,12.0,51,0.00,,,0.00,,2013-01-15 18:23:00,
2013-01-15 12:33:00,30.0,15.0,30.22,NNW,330,4.0,13.0,53,0.00,,,0.00,,2013-01-15 18:33:00,
2013-01-15 12:43:00,30.0,15.0,30.22,NNW,330,4.0,13.0,53,0.00,,,0.00,,2013-01-15 18:43:00,
2013-01-15 12:53:00,30.0,15.0,30.22,NNW,330,4.0,13.0,53,0.00,,,0.00,,2013-01-15 18:53:00,
2013-01-15 13:03:00,31.0,16.0,30.20,North,353,2.0,12.0,53,0.00,,,0.00,,2013-01-15 19:03:00,
2013-01-15 13:12:00,31.0,16.0,30.20,North,353,2.0,12.0,53,0.00,,,0.00,,2013-01-15 19:12:00,
2013-01-15 13:23:00,31.0,16.0,30.20,North,353,2.0,12.0,53,0.00,,,0.00,,2013-01-15 19:23:00,
2013-01-15 13:33:00,29.0,14.0,30.21,ENE,69,4.0,10.0,53,0.00,,,0.00,,2013-01-15 19:33:00,
2013-01-15 13:43:00,29.0,14.0,30.21,ENE,69,4.0,10.0,53,0.00,,,0.00,,2013-01-15 19:43:00,
2013-01-15 13:53:00,29.0,14.0,30.21,ENE,69,4.0,10.0,53,0.00,,,0.00,,2013-01-15 19:53:00,
2013-01-15 14:03:00,30.0,9.0,30.19,North,357,4.0,12.0,41,0.00,,,0.00,,2013-01-15 20:03:00,
2013-01-15 14:12:00,30.0,9.0,30.19,North,357,4.0,12.0,41,0.00,,,0.00,,2013-01-15 20:12:00,
2013-01-15 14:23:00,30.0,9.0,30.19,North,357,4.0,12.0,41,0.00,,,0.00,,2013-01-15 20:23:00,
2013-01-15 14:33:00,31.0,10.0,30.18,NW,314,4.0,12.0,41,0.00,,,0.00,,2013-01-15 20:33:00,
2013-01-15 14:44:00,31.0,10.0,30.18,NW,314,4.0,12.0,41,0.00,,,0.00,,2013-01-15 20:44:00,
2013-01-15 14:53:00,31.0,10.0,30.18,NW,314,4.0,12.0,41,0.00,,,0.00,,2013-01-15 20:53:00,
2013-01-15 15:03:00,31.0,9.0,30.18,NW,325,5.0,17.0,39,0.00,,,0.00,,2013-01-15 21:03:00,
2013-01-15 15:13:00,31.0,9.0,30.18,NW,325,5.0,17.0,39,0.00,,,0.00,,2013-01-15 21:13:00,
2013-01-15 15:23:00,31.0,9.0,30.18,NW,325,5.0,17.0,39,0.00,,,0.00,,2013-01-15 21:23:00,
2013-01-15 15:33:00,31.0,6.0,30.19,WNW,284,6.0,13.0,34,0.00,,,0.00,,2013-01-15 21:33:00,
2013-01-15 15:43:00,31.0,6.0,30.19,WNW,284,6.0,13.0,34,0.00,,,0.00,,2013-01-15 21:43:00,
2013-01-15 15:53:00,31.0,6.0,30.19,WNW,284,6.0,13.0,34,0.00,,,0.00,,2013-01-15 21:53:00,
2013-01-15 16:03:00,28.0,8.0,30.27,North,357,6.0,20.0,43,0.00,,,0.00,,2013-01-15 22:03:00,
2013-01-15 16:12:00,28.0,8.0,30.27,North,357,6.0,20.0,43,0.00,,,0.00,,2013-01-15 22:12:00,
2013-01-15 16:23:00,28.0,8.0,30.27,North,357,6.0,20.0,43,0.00,,,0.00,,2013-01-15 22:23:00,
2013-01-15 16:33:00,28.0,10.0,30.26,WSW,244,4.0,16.0,47,0.00,,,0.00,,2013-01-15 22:33:00,
2013-01-15 16:43:00,28.0,10.0,30.26,WSW,244,4.0,16.0,47,0.00,,,0.00,,2013-01-15 22:43:00,
2013-01-15 16:53:00,28.0,10.0,30.26,WSW,244,4.0,16.0,47,0.00,,,0.00,,2013-01-15 22:53:00,
2013-01-15 17:02:00,29.0,11.0,30.28,NW,306,1.0,12.0,47,0.00,,,0.00,,2013-01-15 23:02:00,
2013-01-15 17:13:00,29.0,11.0,30.28,NW,306,1.0,12.0,47,0.00,,,0.00,,2013-01-15 23:13:00,
2013-01-15 17:22:00,29.0,11.0,30.28,NW,306,1.0,12.0,47,0.00,,,0.00,,2013-01-15 23:22:00,
2013-01-15 17:33:00,29.0,11.0,30.28,NW,306,1.0,12.0,47,0.00,,,0.00,,2013-01-15 23:33:00,
2013-01-15 18:02:00,28.0,9.0,30.31,NW,325,5.0,13.0,44,0.00,,,0.00,,2013-01-16 00:02:00,
2013-01-15 18:12:00,28.0,9.0,30.31,NW,325,5.0,13.0,44,0.00,,,0.00,,2013-01-16 00:12:00,
2013-01-15 18:22:00,28.0,9.0,30.31,NW,325,5.0,13.0,44,0.00,,,0.00,,2013-01-16 00:22:00,
2013-01-15 18:33:00,26.0,9.0,30.34,NW,309,1.0,15.0,47,0.00,,,0.00,,2013-01-16 00:33:00,
2013-01-15 18:43:00,26.0,9.0,30.34,NW,309,1.0,15.0,47,0.00,,,0.00,,2013-01-16 00:43:00,
2013-01-15 18:53:00,26.0,9.0,30.34,NW,309,1.0,15.0,47,0.00,,,0.00,,2013-01-16 00:53:00,
2013-01-15 19:03:00,25.0,9.0,30.36,WNW,301,2.0,12.0,49,0.00,,,0.00,,2013-01-16 01:03:00,
2013-01-15 19:12:00,25.0,9.0,30.36,WNW,301,2.0,12.0,49,0.00,,,0.00,,2013-01-16 01:12:00,
2013-01-15 19:22:00,25.0,9.0,30.36,WNW,301,2.0,12.0,49,0.00,,,0.00,,2013-01-16 01:22:00,
2013-01-15 19:33:00,24.0,9.0,30.37,NW,308,2.0,7.0,51,0.00,,,0.00,,2013-01-16 01:33:00,
2013-01-15 19:43:00,24.0,9.0,30.37,NW,308,2.0,7.0,51,0.00,,,0.00,,2013-01-16 01:43:00,
2013-01-15 19:53:00,24.0,9.0,30.37,NW,308,2.0,7.0,51,0.00,,,0.00,,2013-01-16 01:53:00,
2013-01-15 20:03:00,23.0,7.0,30.40,WSW,258,0.0,7.0,50,0.00,,,0.00,,2013-01-16 02:03:00,
2013-01-15 20:12:00,23.0,7.0,30.40,WSW,258,0.0,7.0,50,0.00,,,0.00,,2013-01-16 02:12:00,
2013-01-15 20:22:00,23.0,7.0,30.40,WSW,258,0.0,7.0,50,0.00,,,0.00,,2013-01-16 02:22:00,
2013-01-15 20:32:00,23.0,4.0,30.41,WSW,239,3.0,10.0,44,0.00,,,0.00,,2013-01-16 02:32:00,
2013-01-15 20:43:00,23.0,4.0,30.41,WSW,239,3.0,10.0,44,0.00,,,0.00,,2013-01-16 02:43:00,
2013-01-15 20:53:00,23.0,4.0,30.41,WSW,239,3.0,10.0,44,0.00,,,0.00,,2013-01-16 02:53:00,
2013-01-15 21:03:00,23.0,7.0,30.37,West,261,2.0,7.0,49,0.00,,,0.00,,2013-01-16 03:03:00,
2013-01-15 21:12:00,23.0,7.0,30.37,West,261,2.0,7.0,49,0.00,,,0.00,,2013-01-16 03:12:00,
2013-01-15 21:22:00,23.0,7.0,30.37,West,261,2.0,7.0,49,0.00,,,0.00,,2013-01-16 03:22:00,
2013-01-15 21:32:00,22.0,9.0,30.39,SW,236,1.0,7.0,57,0.00,,,0.00,,2013-01-16 03:32:00,
2013-01-15 21:43:00,22.0,9.0,30.39,SW,236,1.0,7.0,57,0.00,,,0.00,,2013-01-16 03:43:00,
2013-01-15 21:53:00,22.0,9.0,30.39,SW,236,1.0,7.0,57,0.00,,,0.00,,2013-01-16 03:53:00,
2013-01-15 22:02:00,21.0,9.0,30.35,WNW,298,1.0,8.0,60,0.00,,,0.00,,2013-01-16 04:02:00,
2013-01-15 22:12:00,21.0,9.0,30.35,WNW,298,1.0,8.0,60,0.00,,,0.00,,2013-01-16 04:12:00,
2013-01-15 22:22:00,21.0,9.0,30.35,WNW,298,1.0,8.0,60,0.00,,,0.00,,2013-01-16 04:22:00,
2013-01-15 22:32:00,20.0,7.0,30.37,WSW,256,1.0,6.0,56,0.00,,,0.00,,2013-01-16 04:32:00,
2013-01-15 22:42:00,20.0,7.0,30.37,WSW,256,1.0,6.0,56,0.00,,,0.00,,2013-01-16 04:42:00,
2013-01-15 22:52:00,20.0,7.0,30.37,WSW,256,1.0,6.0,56,0.00,,,0.00,,2013-01-16 04:52:00,
2013-01-15 23:03:00,20.0,2.0,30.34,SSW,200,1.0,12.0,44,0.00,,,0.00,,2013-01-16 05:03:00,
2013-01-15 23:12:00,20.0,2.0,30.34,SSW,200,1.0,12.0,44,0.00,,,0.00,,2013-01-16 05:12:00,
2013-01-15 23:22:00,20.0,2.0,30.34,SSW,200,1.0,12.0,44,0.00,,,0.00,,2013-01-16 05:22:00,
2013-01-15 23:32:00,19.0,-1.0,30.35,South,185,0.0,8.0,40,0.00,,,0.00,,2013-01-16 05:32:00,
2013-01-15 23:42:00,19.0,-1.0,30.35,South,185,0.0,8.0,40,0.00,,,0.00,,2013-01-16 05:42:00,
2013-01-15 23:53:00,19.0,-1.0,30.35,South,185,0.0,8.0,40,0.00,,,0.00,,2013-01-16 05:53:00,